Time;durP1;ratioP1;P1;durP2;ratioP2;P2;SDS_P1;SDS_P2;PMS_P1;PMS_P2;Temp;Humidity;BMP_temperature;BMP_pressure;BME280_temperature;BME280_humidity;BME280_pressure;Samples;Min_cycle;Max_cycle;Signal;HPM_P1;HPM_P2
2022/01/11 00:01:49;;;;;;;;;;;1.80;99.90;;;;;;5072385;28;19929;-52
2022/01/11 00:04:17;;;;;;;;;;;1.70;99.90;;;;;;5070782;28;19986;-51
2022/01/11 00:06:47;;;;;;;;;;;1.60;99.90;;;;;;5072266;28;20369;-52
2022/01/11 00:09:22;;;;;;;;;;;1.80;99.90;;;;;;5071490;28;19924;-51
2022/01/11 00:11:49;;;;;;;;;;;1.70;99.90;;;;;;5064424;28;19936;-52
2022/01/11 00:14:16;;;;;;;;;;;1.70;99.90;;;;;;5071845;28;19932;-53
2022/01/11 00:16:45;;;;;;;;;;;1.80;99.90;;;;;;5071644;28;20453;-52
2022/01/11 00:19:13;;;;;;;;;;;1.80;99.90;;;;;;5061053;28;20016;-51
2022/01/11 00:21:45;;;;;;;;;;;1.70;99.90;;;;;;5062098;28;19928;-51
2022/01/11 00:24:30;;;;;;;;;;;1.70;99.90;;;;;;5061463;28;20428;-52
2022/01/11 00:27:00;;;;;;;;;;;1.60;99.90;;;;;;5067823;28;19920;-52
2022/01/11 00:29:27;;;;;;;;;;;1.50;99.90;;;;;;5071209;28;19994;-51
2022/01/11 00:31:59;;;;;;;;;;;1.40;99.90;;;;;;5071968;28;19928;-52
2022/01/11 00:34:28;;;;;;;;;;;1.30;99.90;;;;;;5071681;28;19978;-52
2022/01/11 00:36:55;;;;;;;;;;;1.30;99.90;;;;;;5062555;28;19983;-51
2022/01/11 00:39:22;;;;;;;;;;;1.20;99.90;;;;;;5071433;28;19924;-52
2022/01/11 00:41:48;;;;;;;;;;;1.20;99.90;;;;;;5071222;28;19995;-52
2022/01/11 00:44:15;;;;;;;;;;;1.30;99.90;;;;;;5075081;28;19925;-51
2022/01/11 00:46:44;;;;;;;;;;;1.20;99.90;;;;;;5074764;28;19925;-51
2022/01/11 00:49:12;;;;;;;;;;;1.30;99.90;;;;;;5065919;28;19931;-52
2022/01/11 00:51:40;;;;;;;;;;;1.20;99.90;;;;;;5075526;28;19929;-51
2022/01/11 00:54:06;;;;;;;;;;;1.20;99.90;;;;;;5074271;28;19928;-52
2022/01/11 00:56:33;;;;;;;;;;;1.10;99.90;;;;;;5074822;28;19924;-52
2022/01/11 00:59:00;;;;;;;;;;;1.10;99.90;;;;;;5074800;28;19924;-51
2022/01/11 01:01:27;;;;;;;;;;;1.10;99.90;;;;;;5074817;28;20408;-51
2022/01/11 01:03:54;;;;;;;;;;;1.10;99.90;;;;;;5074441;28;20420;-52
2022/01/11 01:06:22;;;;;;;;;;;1.10;99.90;;;;;;5074893;28;19985;-52
2022/01/11 01:08:49;;;;;;;;;;;1.00;99.90;;;;;;5074545;28;20381;-52
2022/01/11 01:11:15;;;;;;;;;;;1.10;99.90;;;;;;5074571;28;19924;-52
2022/01/11 01:13:42;;;;;;;;;;;1.10;99.90;;;;;;5074686;28;19925;-51
2022/01/11 01:16:09;;;;;;;;;;;1.20;99.90;;;;;;5074364;28;19929;-52
2022/01/11 01:18:36;;;;;;;;;;;1.20;99.90;;;;;;5071574;28;20031;-52
2022/01/11 01:21:03;;;;;;;;;;;1.30;99.90;;;;;;5075072;28;20031;-52
2022/01/11 01:23:31;;;;;;;;;;;1.20;99.90;;;;;;5074258;28;19924;-52
2022/01/11 01:25:59;;;;;;;;;;;1.10;99.90;;;;;;5074746;28;19986;-51
2022/01/11 01:28:26;;;;;;;;;;;1.10;99.90;;;;;;5074132;28;20376;-52
2022/01/11 01:30:55;;;;;;;;;;;1.10;99.90;;;;;;5074222;28;20431;-51
2022/01/11 01:33:22;;;;;;;;;;;1.00;99.90;;;;;;5073632;28;19924;-52
2022/01/11 01:35:53;;;;;;;;;;;1.00;99.90;;;;;;5070276;28;19970;-52
2022/01/11 01:38:23;;;;;;;;;;;1.00;99.90;;;;;;5070146;28;19946;-51
2022/01/11 01:40:54;;;;;;;;;;;1.10;99.90;;;;;;5074131;28;19925;-52
2022/01/11 01:43:21;;;;;;;;;;;1.40;99.90;;;;;;5074040;28;19930;-52
2022/01/11 01:45:49;;;;;;;;;;;1.40;99.90;;;;;;5074362;28;19986;-51
2022/01/11 01:48:16;;;;;;;;;;;1.20;99.90;;;;;;5073205;28;19924;-52
2022/01/11 01:50:43;;;;;;;;;;;1.20;99.90;;;;;;5074364;28;19970;-51
2022/01/11 01:53:11;;;;;;;;;;;1.10;99.90;;;;;;5074049;28;19946;-52
2022/01/11 01:55:38;;;;;;;;;;;1.10;99.90;;;;;;5073270;28;19932;-52
2022/01/11 01:58:06;;;;;;;;;;;1.00;99.90;;;;;;5074070;28;19982;-51
2022/01/11 02:00:40;;;;;;;;;;;0.90;99.90;;;;;;5074237;28;19994;-51
2022/01/11 02:03:10;;;;;;;;;;;0.80;99.90;;;;;;5073362;28;19924;-51
2022/01/11 02:05:37;;;;;;;;;;;0.80;99.90;;;;;;5073533;28;20313;-51
2022/01/11 02:08:04;;;;;;;;;;;0.80;99.90;;;;;;5073533;28;19978;-51
2022/01/11 02:10:30;;;;;;;;;;;0.90;99.90;;;;;;5073461;28;19986;-50
2022/01/11 02:12:58;;;;;;;;;;;0.90;99.90;;;;;;5073829;28;19970;-52
2022/01/11 02:15:26;;;;;;;;;;;1.00;99.90;;;;;;5073597;28;20581;-50
2022/01/11 02:17:56;;;;;;;;;;;1.00;99.90;;;;;;5073165;28;19924;-51
2022/01/11 02:20:24;;;;;;;;;;;1.00;99.90;;;;;;5073343;28;19928;-51
2022/01/11 02:22:51;;;;;;;;;;;1.10;99.90;;;;;;5073295;28;19974;-51
2022/01/11 02:25:18;;;;;;;;;;;1.10;99.90;;;;;;5073561;28;19924;-51
2022/01/11 02:27:44;;;;;;;;;;;1.10;99.90;;;;;;5073269;28;19936;-51
2022/01/11 02:30:11;;;;;;;;;;;1.10;99.90;;;;;;5072403;28;19977;-51
2022/01/11 02:32:48;;;;;;;;;;;1.10;99.90;;;;;;5072556;28;19954;-50
2022/01/11 02:35:15;;;;;;;;;;;1.10;99.90;;;;;;5073336;28;20005;-50
2022/01/11 02:37:43;;;;;;;;;;;1.10;99.90;;;;;;5073207;28;19970;-51
2022/01/11 02:40:10;;;;;;;;;;;1.20;99.90;;;;;;5072912;28;19931;-51
2022/01/11 02:42:37;;;;;;;;;;;1.20;99.90;;;;;;5072555;28;19982;-50
2022/01/11 02:45:04;;;;;;;;;;;1.20;99.90;;;;;;5071183;28;19928;-51
2022/01/11 02:47:31;;;;;;;;;;;1.10;99.90;;;;;;5061331;28;20005;-50
2022/01/11 02:49:58;;;;;;;;;;;1.00;99.90;;;;;;5072675;28;19925;-51
2022/01/11 02:52:24;;;;;;;;;;;1.10;99.90;;;;;;5072646;28;19994;-51
2022/01/11 02:54:52;;;;;;;;;;;1.00;99.90;;;;;;5061459;28;19994;-51
2022/01/11 02:57:19;;;;;;;;;;;1.10;99.90;;;;;;5073633;28;20443;-51
2022/01/11 02:59:46;;;;;;;;;;;1.00;99.90;;;;;;5073220;28;19928;-50
2022/01/11 03:02:13;;;;;;;;;;;1.00;99.90;;;;;;5072824;28;19970;-51
2022/01/11 03:04:40;;;;;;;;;;;1.10;99.90;;;;;;5073093;28;19924;-51
2022/01/11 03:07:07;;;;;;;;;;;1.10;99.90;;;;;;5073031;28;19928;-51
2022/01/11 03:09:47;;;;;;;;;;;1.20;99.90;;;;;;5071732;28;19978;-50
2022/01/11 03:12:16;;;;;;;;;;;1.10;99.90;;;;;;5072986;28;19925;-51
2022/01/11 03:14:43;;;;;;;;;;;1.00;99.90;;;;;;5072289;28;20378;-51
2022/01/11 03:17:10;;;;;;;;;;;1.10;99.90;;;;;;5072665;28;19933;-51
2022/01/11 03:19:37;;;;;;;;;;;1.10;99.90;;;;;;5057646;28;19929;-51
2022/01/11 03:22:04;;;;;;;;;;;1.10;99.90;;;;;;5057760;28;19924;-51
2022/01/11 03:24:31;;;;;;;;;;;1.00;99.90;;;;;;5072436;28;19978;-51
2022/01/11 03:26:57;;;;;;;;;;;1.10;99.90;;;;;;5072763;28;19925;-51
2022/01/11 03:29:25;;;;;;;;;;;1.20;99.90;;;;;;5072490;28;19925;-51
2022/01/11 03:31:52;;;;;;;;;;;1.00;99.90;;;;;;5071919;28;19978;-50
2022/01/11 03:34:19;;;;;;;;;;;1.00;99.90;;;;;;5072284;28;20443;-50
2022/01/11 03:36:46;;;;;;;;;;;1.00;99.90;;;;;;5072565;28;19925;-51
2022/01/11 03:39:13;;;;;;;;;;;0.90;99.90;;;;;;5072261;28;19985;-50
2022/01/11 03:41:39;;;;;;;;;;;0.90;99.90;;;;;;5072450;28;19994;-51
2022/01/11 03:44:06;;;;;;;;;;;1.00;99.90;;;;;;5071958;28;19928;-50
2022/01/11 03:46:34;;;;;;;;;;;1.00;99.90;;;;;;5072086;28;19924;-57
2022/01/11 03:49:01;;;;;;;;;;;1.00;99.90;;;;;;5071384;28;20318;-51
2022/01/11 03:51:28;;;;;;;;;;;1.00;99.90;;;;;;5072245;28;19929;-51
2022/01/11 03:54:02;;;;;;;;;;;1.10;99.90;;;;;;5072273;28;19925;-51
2022/01/11 03:56:28;;;;;;;;;;;1.00;99.90;;;;;;5069442;28;20404;-51
2022/01/11 03:58:55;;;;;;;;;;;1.00;99.90;;;;;;5069925;28;19947;-51
2022/01/11 04:01:23;;;;;;;;;;;0.90;99.90;;;;;;5072161;28;19928;-52
2022/01/11 04:03:51;;;;;;;;;;;0.90;99.90;;;;;;5071524;28;20462;-51
2022/01/11 04:06:17;;;;;;;;;;;1.00;99.90;;;;;;5072440;28;19928;-51
2022/01/11 04:08:45;;;;;;;;;;;0.90;99.90;;;;;;5071735;28;19924;-51
2022/01/11 04:11:11;;;;;;;;;;;0.90;99.90;;;;;;5095459;22;19925;-51
2022/01/11 04:13:38;;;;;;;;;;;0.80;99.90;;;;;;5071183;28;19979;-52
2022/01/11 04:16:05;;;;;;;;;;;0.70;99.90;;;;;;5071381;28;19986;-52
2022/01/11 04:18:32;;;;;;;;;;;0.50;99.90;;;;;;5082055;28;19925;-52
2022/01/11 04:21:00;;;;;;;;;;;0.50;99.90;;;;;;5075599;28;19924;-52
2022/01/11 04:23:27;;;;;;;;;;;0.60;99.90;;;;;;5075506;28;19970;-52
2022/01/11 04:25:54;;;;;;;;;;;0.40;99.90;;;;;;5074238;28;19932;-52
2022/01/11 04:28:23;;;;;;;;;;;0.20;99.90;;;;;;5075213;28;19986;-51
2022/01/11 04:30:49;;;;;;;;;;;0.10;99.90;;;;;;5075188;28;20014;-52
2022/01/11 04:33:16;;;;;;;;;;;-0.10;99.90;;;;;;5074680;28;19978;-52
2022/01/11 04:35:48;;;;;;;;;;;-0.20;99.90;;;;;;5074716;28;19950;-52
2022/01/11 04:38:16;;;;;;;;;;;-0.30;99.90;;;;;;5074303;28;19932;-52
2022/01/11 04:40:43;;;;;;;;;;;-0.30;99.90;;;;;;5074823;28;19978;-51
2022/01/11 04:43:10;;;;;;;;;;;-0.30;99.90;;;;;;5074941;28;19924;-51
2022/01/11 04:45:37;;;;;;;;;;;-0.10;99.90;;;;;;5075160;28;19986;-51
2022/01/11 04:48:04;;;;;;;;;;;0.00;99.90;;;;;;5074476;28;19932;-52
2022/01/11 04:50:30;;;;;;;;;;;0.00;99.90;;;;;;5073839;28;19972;-52
2022/01/11 04:52:57;;;;;;;;;;;0.00;99.90;;;;;;5074310;28;19978;-52
2022/01/11 04:55:26;;;;;;;;;;;0.00;99.90;;;;;;5074730;28;19930;-51
2022/01/11 04:57:55;;;;;;;;;;;0.00;99.90;;;;;;5074474;28;19924;-51
2022/01/11 05:00:23;;;;;;;;;;;0.10;99.90;;;;;;5074615;28;19929;-52
2022/01/11 05:02:50;;;;;;;;;;;0.20;99.90;;;;;;5074143;28;19928;-52
2022/01/11 05:05:17;;;;;;;;;;;0.20;99.90;;;;;;5074405;28;19977;-51
2022/01/11 05:07:44;;;;;;;;;;;0.30;99.90;;;;;;5068078;28;19925;-52
2022/01/11 05:10:11;;;;;;;;;;;0.30;99.90;;;;;;5055168;28;19925;-52
2022/01/11 05:12:39;;;;;;;;;;;0.20;99.90;;;;;;5054592;28;19979;-51
2022/01/11 05:15:07;;;;;;;;;;;0.20;99.90;;;;;;5059106;28;20027;-51
2022/01/11 05:17:34;;;;;;;;;;;0.40;99.90;;;;;;5073803;28;19928;-51
2022/01/11 05:20:00;;;;;;;;;;;0.50;99.90;;;;;;5055890;28;19925;-52
2022/01/11 05:22:27;;;;;;;;;;;0.50;99.90;;;;;;5054478;28;19924;-51
2022/01/11 05:24:54;;;;;;;;;;;0.40;99.90;;;;;;5056635;28;19951;-52
2022/01/11 05:27:21;;;;;;;;;;;0.40;99.90;;;;;;5074066;28;19924;-50
2022/01/11 05:29:49;;;;;;;;;;;0.40;99.90;;;;;;5071832;28;19960;-52
2022/01/11 05:32:16;;;;;;;;;;;0.40;99.90;;;;;;5073895;28;20058;-51
2022/01/11 05:34:42;;;;;;;;;;;0.30;99.90;;;;;;5073701;28;20348;-51
2022/01/11 05:37:09;;;;;;;;;;;0.30;99.90;;;;;;5073762;28;19932;-52
2022/01/11 05:39:37;;;;;;;;;;;0.30;99.90;;;;;;5073768;28;19924;-52
2022/01/11 05:42:06;;;;;;;;;;;0.30;99.90;;;;;;5073751;28;19924;-52
2022/01/11 05:44:33;;;;;;;;;;;0.30;99.90;;;;;;5073464;28;19985;-52
2022/01/11 05:47:01;;;;;;;;;;;0.40;99.90;;;;;;5058067;28;19925;-51
2022/01/11 05:49:28;;;;;;;;;;;0.40;99.90;;;;;;5053490;28;19994;-51
2022/01/11 05:51:54;;;;;;;;;;;0.40;99.90;;;;;;5053944;28;19990;-52
2022/01/11 05:54:21;;;;;;;;;;;0.40;99.90;;;;;;5053551;28;19925;-52
2022/01/11 05:56:50;;;;;;;;;;;0.40;99.90;;;;;;5053494;28;19932;-52
2022/01/11 05:59:16;;;;;;;;;;;0.40;99.90;;;;;;5066660;28;20341;-51
2022/01/11 06:01:43;;;;;;;;;;;0.50;99.90;;;;;;5072836;28;20491;-51
2022/01/11 06:04:11;;;;;;;;;;;0.30;99.90;;;;;;5073300;28;19950;-51
2022/01/11 06:06:38;;;;;;;;;;;0.20;99.90;;;;;;5073467;28;19924;-51
2022/01/11 06:09:05;;;;;;;;;;;0.20;99.90;;;;;;5072633;28;19982;-51
2022/01/11 06:11:32;;;;;;;;;;;0.40;99.90;;;;;;5073038;28;19924;-52
2022/01/11 06:13:59;;;;;;;;;;;0.30;99.90;;;;;;5073106;28;19979;-51
2022/01/11 06:16:25;;;;;;;;;;;0.20;99.90;;;;;;5072563;28;19928;-52
2022/01/11 06:18:52;;;;;;;;;;;0.10;99.90;;;;;;5064654;28;19978;-52
2022/01/11 06:21:20;;;;;;;;;;;0.00;99.90;;;;;;5072463;28;19984;-51
2022/01/11 06:23:47;;;;;;;;;;;0.10;99.90;;;;;;5056030;28;19932;-52
2022/01/11 06:26:14;;;;;;;;;;;0.20;99.90;;;;;;5052810;28;19925;-51
2022/01/11 06:28:41;;;;;;;;;;;0.10;99.90;;;;;;5070711;28;20379;-51
2022/01/11 06:31:08;;;;;;;;;;;-0.10;99.90;;;;;;5072870;28;19986;-51
2022/01/11 06:33:35;;;;;;;;;;;-0.20;99.90;;;;;;5072458;28;19982;-51
2022/01/11 06:36:02;;;;;;;;;;;-0.40;99.90;;;;;;5072769;28;19924;-52
2022/01/11 06:38:30;;;;;;;;;;;-0.40;99.90;;;;;;5072483;28;20448;-52
2022/01/11 06:40:57;;;;;;;;;;;-0.50;99.90;;;;;;5072225;28;19924;-52
2022/01/11 06:43:23;;;;;;;;;;;-0.50;99.90;;;;;;5072267;28;20378;-52
2022/01/11 06:45:50;;;;;;;;;;;-0.50;99.90;;;;;;5071913;28;19925;-52
2022/01/11 06:48:17;;;;;;;;;;;-0.60;99.90;;;;;;5072235;28;19932;-51
2022/01/11 06:50:44;;;;;;;;;;;-0.60;99.90;;;;;;5072281;28;19924;-51
2022/01/11 06:53:11;;;;;;;;;;;-0.70;99.90;;;;;;5072343;28;19977;-51
2022/01/11 06:55:39;;;;;;;;;;;-0.70;99.90;;;;;;5072320;28;19929;-51
2022/01/11 06:58:06;;;;;;;;;;;-0.70;99.90;;;;;;5072035;28;20307;-52
2022/01/11 07:00:32;;;;;;;;;;;-0.70;99.90;;;;;;5071809;28;19970;-52
2022/01/11 07:02:59;;;;;;;;;;;-0.70;99.90;;;;;;5068877;28;20021;-51
2022/01/11 07:05:26;;;;;;;;;;;-0.70;99.90;;;;;;5054224;28;19929;-51
2022/01/11 07:07:53;;;;;;;;;;;-0.70;99.90;;;;;;5069912;28;19925;-51
2022/01/11 07:10:19;;;;;;;;;;;-0.60;99.90;;;;;;5071797;28;19994;-52
2022/01/11 07:12:47;;;;;;;;;;;-0.50;99.90;;;;;;5070887;28;20299;-51
2022/01/11 07:15:14;;;;;;;;;;;-0.50;99.90;;;;;;5060534;28;20381;-51
2022/01/11 07:17:42;;;;;;;;;;;-0.60;99.90;;;;;;5053510;28;19970;-51
2022/01/11 07:20:09;;;;;;;;;;;-0.60;99.90;;;;;;5058764;28;19928;-51
2022/01/11 07:22:37;;;;;;;;;;;-0.50;99.90;;;;;;5055213;28;19973;-52
2022/01/11 07:25:04;;;;;;;;;;;-0.50;99.90;;;;;;5061640;28;19925;-52
2022/01/11 07:27:31;;;;;;;;;;;-0.50;99.90;;;;;;5059032;28;19925;-52
2022/01/11 07:30:00;;;;;;;;;;;-0.50;99.90;;;;;;5070060;28;20019;-51
2022/01/11 07:32:27;;;;;;;;;;;-0.60;99.90;;;;;;5065715;28;19935;-53
2022/01/11 07:34:53;;;;;;;;;;;-0.50;99.90;;;;;;5070718;28;20401;-51
2022/01/11 07:37:20;;;;;;;;;;;-0.40;99.90;;;;;;5063516;28;20087;-51
2022/01/11 07:39:47;;;;;;;;;;;-0.20;99.90;;;;;;5066416;28;19971;-51
2022/01/11 07:42:14;;;;;;;;;;;0.00;99.90;;;;;;5065610;28;19959;-51
2022/01/11 07:44:43;;;;;;;;;;;0.10;99.90;;;;;;5059131;28;19924;-50
2022/01/11 07:47:11;;;;;;;;;;;0.20;99.90;;;;;;5070018;28;19931;-52
2022/01/11 07:49:37;;;;;;;;;;;0.30;99.90;;;;;;5071120;28;19991;-50
2022/01/11 07:52:04;;;;;;;;;;;0.20;99.90;;;;;;5070102;28;20279;-51
2022/01/11 07:54:31;;;;;;;;;;;0.30;99.90;;;;;;5069692;28;19978;-51
2022/01/11 07:56:58;;;;;;;;;;;0.30;99.90;;;;;;5066670;28;19940;-51
2022/01/11 07:59:24;;;;;;;;;;;0.40;99.90;;;;;;5071390;28;19977;-50
2022/01/11 08:01:51;;;;;;;;;;;0.40;99.90;;;;;;5069385;28;19932;-51
2022/01/11 08:04:19;;;;;;;;;;;0.60;99.90;;;;;;5071553;28;20443;-51
2022/01/11 08:06:46;;;;;;;;;;;0.80;99.90;;;;;;5071070;28;20405;-51
2022/01/11 08:09:15;;;;;;;;;;;1.00;99.90;;;;;;5067100;28;19925;-52
2022/01/11 08:11:42;;;;;;;;;;;1.20;99.90;;;;;;5061709;28;19925;-51
2022/01/11 08:14:09;;;;;;;;;;;1.40;99.90;;;;;;5070697;28;20076;-51
2022/01/11 08:16:36;;;;;;;;;;;1.60;99.90;;;;;;5065682;28;19990;-51
2022/01/11 08:19:02;;;;;;;;;;;1.90;99.90;;;;;;5067856;28;19925;-50
2022/01/11 08:21:31;;;;;;;;;;;2.30;99.90;;;;;;5070946;28;19928;-51
2022/01/11 08:23:57;;;;;;;;;;;2.50;99.90;;;;;;5064364;28;19978;-51
2022/01/11 08:26:24;;;;;;;;;;;2.60;99.90;;;;;;5067700;28;19924;-51
2022/01/11 08:28:51;;;;;;;;;;;2.60;99.90;;;;;;5071064;28;19924;-51
2022/01/11 08:31:19;;;;;;;;;;;2.50;99.90;;;;;;5069950;28;19924;-50
2022/01/11 08:33:46;;;;;;;;;;;3.10;99.90;;;;;;5070093;28;19924;-52
2022/01/11 08:36:13;;;;;;;;;;;3.70;99.90;;;;;;5071050;28;19925;-51
2022/01/11 08:38:41;;;;;;;;;;;4.20;99.90;;;;;;5059019;28;19929;-51
2022/01/11 08:41:09;;;;;;;;;;;3.80;99.90;;;;;;5064316;28;19978;-51
2022/01/11 08:43:38;;;;;;;;;;;3.80;99.90;;;;;;5061108;28;19925;-51
2022/01/11 08:46:05;;;;;;;;;;;3.80;99.90;;;;;;5070660;28;19951;-51
2022/01/11 08:48:35;;;;;;;;;;;3.70;99.90;;;;;;5068718;28;20420;-51
2022/01/11 08:51:02;;;;;;;;;;;4.30;99.90;;;;;;5071225;28;19928;-51
2022/01/11 08:53:28;;;;;;;;;;;4.70;99.90;;;;;;5061121;28;19925;-51
2022/01/11 08:55:57;;;;;;;;;;;5.70;99.90;;;;;;5051034;28;19924;-52
2022/01/11 08:58:23;;;;;;;;;;;5.70;99.90;;;;;;5050601;28;19975;-50
2022/01/11 09:00:50;;;;;;;;;;;5.70;99.90;;;;;;5070244;28;19932;-51
2022/01/11 09:03:17;;;;;;;;;;;5.90;99.90;;;;;;5071548;28;19928;-50
2022/01/11 09:05:44;;;;;;;;;;;5.60;99.90;;;;;;5074325;28;20402;-51
2022/01/11 09:08:13;;;;;;;;;;;5.40;99.90;;;;;;5074293;28;19925;-51
2022/01/11 09:10:40;;;;;;;;;;;4.90;99.90;;;;;;5074392;28;19933;-51
2022/01/11 09:13:08;;;;;;;;;;;4.50;99.90;;;;;;5074413;28;19929;-51
2022/01/11 09:15:35;;;;;;;;;;;4.00;99.90;;;;;;5074137;28;20532;-52
2022/01/11 09:18:02;;;;;;;;;;;4.80;99.90;;;;;;5073377;28;19962;-51
2022/01/11 09:20:29;;;;;;;;;;;5.30;99.90;;;;;;5073417;28;19929;-51
2022/01/11 09:22:56;;;;;;;;;;;5.80;99.90;;;;;;5073349;28;19924;-50
2022/01/11 09:25:22;;;;;;;;;;;6.40;99.90;;;;;;5073950;28;20406;-51
2022/01/11 09:27:49;;;;;;;;;;;7.40;99.90;;;;;;5073654;28;20341;-49
2022/01/11 09:30:18;;;;;;;;;;;7.00;99.90;;;;;;5073628;28;19924;-51
2022/01/11 09:32:44;;;;;;;;;;;6.00;99.90;;;;;;5073748;28;19978;-50
2022/01/11 09:35:13;;;;;;;;;;;5.40;99.90;;;;;;5073027;28;19977;-51
2022/01/11 09:37:40;;;;;;;;;;;5.30;99.90;;;;;;5072714;28;20495;-51
2022/01/11 09:40:08;;;;;;;;;;;5.40;99.90;;;;;;5066728;28;20374;-51
2022/01/11 09:42:35;;;;;;;;;;;5.10;99.90;;;;;;5073681;28;19928;-50
2022/01/11 09:45:04;;;;;;;;;;;5.00;99.90;;;;;;5072757;28;19924;-50
2022/01/11 09:47:32;;;;;;;;;;;4.90;99.90;;;;;;5072637;28;19960;-51
2022/01/11 09:49:58;;;;;;;;;;;4.70;99.90;;;;;;5068777;28;19925;-51
2022/01/11 09:52:26;;;;;;;;;;;4.90;99.90;;;;;;5064326;28;20314;-50
2022/01/11 09:54:53;;;;;;;;;;;4.90;99.90;;;;;;5063227;28;19924;-51
2022/01/11 09:57:20;;;;;;;;;;;5.00;99.90;;;;;;5073042;28;19970;-50
2022/01/11 09:59:47;;;;;;;;;;;5.10;99.90;;;;;;5071245;28;19928;-51
2022/01/11 10:02:14;;;;;;;;;;;4.70;99.90;;;;;;5065217;28;19925;-50
2022/01/11 10:04:44;;;;;;;;;;;4.90;99.90;;;;;;5071825;28;19925;-51
2022/01/11 10:07:13;;;;;;;;;;;4.90;99.90;;;;;;5072718;28;19924;-49
2022/01/11 10:09:45;;;;;;;;;;;4.80;99.90;;;;;;5069462;28;19925;-50
2022/01/11 10:12:13;;;;;;;;;;;4.50;99.90;;;;;;5076952;22;19925;-52
2022/01/11 10:14:45;;;;;;;;;;;4.50;99.90;;;;;;5044247;28;20008;-51
2022/01/11 10:17:13;;;;;;;;;;;4.90;99.90;;;;;;5048152;28;19929;-51
2022/01/11 10:19:41;;;;;;;;;;;5.90;99.90;;;;;;5052551;28;19929;-51
2022/01/11 10:22:09;;;;;;;;;;;6.80;99.90;;;;;;5067956;28;19925;-51
2022/01/11 10:24:39;;;;;;;;;;;8.00;99.90;;;;;;5076729;28;19928;-51
2022/01/11 10:27:07;;;;;;;;;;;8.90;99.90;;;;;;5083682;28;19992;-51
2022/01/11 10:29:37;;;;;;;;;;;10.20;99.90;;;;;;5080736;28;19978;-51
2022/01/11 10:32:12;;;;;;;;;;;11.20;99.90;;;;;;5072770;28;19931;-51
2022/01/11 10:34:41;;;;;;;;;;;12.00;99.90;;;;;;5062253;28;20316;-51
2022/01/11 10:37:10;;;;;;;;;;;12.20;99.00;;;;;;5053882;28;19970;-51
2022/01/11 10:39:37;;;;;;;;;;;12.50;98.70;;;;;;5064737;28;19964;-50
2022/01/11 10:42:05;;;;;;;;;;;12.90;97.20;;;;;;5068715;28;19985;-51
2022/01/11 10:44:47;;;;;;;;;;;12.80;96.40;;;;;;5068261;28;20395;-51
2022/01/11 10:47:17;;;;;;;;;;;12.60;97.30;;;;;;5053222;28;19931;-51
2022/01/11 10:49:44;;;;;;;;;;;11.80;97.80;;;;;;5062096;28;19978;-50
2022/01/11 10:52:20;;;;;;;;;;;10.50;98.80;;;;;;5053032;28;19983;-50
2022/01/11 10:54:47;;;;;;;;;;;9.10;99.90;;;;;;5064929;28;19986;-51
2022/01/11 10:57:15;;;;;;;;;;;7.90;99.90;;;;;;5062187;28;19932;-50
2022/01/11 10:59:42;;;;;;;;;;;6.90;99.90;;;;;;5052814;28;19925;-51
2022/01/11 11:02:12;;;;;;;;;;;6.10;99.90;;;;;;5053282;28;19978;-50
2022/01/11 11:04:39;;;;;;;;;;;6.30;99.90;;;;;;5058093;28;19924;-50
2022/01/11 11:07:12;;;;;;;;;;;6.10;99.90;;;;;;5062940;28;20215;-50
2022/01/11 11:09:47;;;;;;;;;;;6.40;99.90;;;;;;5072190;28;19924;-51
2022/01/11 11:12:15;;;;;;;;;;;6.80;99.90;;;;;;5072444;28;19924;-50
2022/01/11 11:14:48;;;;;;;;;;;7.20;99.90;;;;;;5072602;28;19924;-51
2022/01/11 11:17:25;;;;;;;;;;;7.50;99.90;;;;;;5072712;28;19928;-51
2022/01/11 11:19:56;;;;;;;;;;;7.20;99.90;;;;;;5072806;28;19986;-51
2022/01/11 11:22:24;;;;;;;;;;;7.10;99.90;;;;;;5072712;28;19924;-50
2022/01/11 11:24:53;;;;;;;;;;;7.10;99.90;;;;;;5072150;28;19928;-51
2022/01/11 11:27:21;;;;;;;;;;;7.20;99.90;;;;;;5071085;28;19924;-51
2022/01/11 11:29:49;;;;;;;;;;;7.50;99.90;;;;;;5072161;28;19924;-51
2022/01/11 11:32:17;;;;;;;;;;;7.80;99.90;;;;;;5072185;28;19924;-51
2022/01/11 11:34:48;;;;;;;;;;;7.80;99.90;;;;;;5072688;28;20007;-50
2022/01/11 11:37:17;;;;;;;;;;;7.50;99.90;;;;;;5073155;28;19963;-50
2022/01/11 11:39:45;;;;;;;;;;;7.40;99.90;;;;;;5071577;28;19978;-50
2022/01/11 11:42:15;;;;;;;;;;;7.30;99.90;;;;;;5057582;28;19928;-51
2022/01/11 11:44:44;;;;;;;;;;;7.00;99.90;;;;;;5056560;28;19932;-51
2022/01/11 11:47:11;;;;;;;;;;;6.40;99.90;;;;;;5071823;28;19924;-51
2022/01/11 11:49:43;;;;;;;;;;;6.20;99.90;;;;;;5071093;28;19978;-51
2022/01/11 11:52:16;;;;;;;;;;;6.10;99.90;;;;;;5072102;28;20039;-51
2022/01/11 11:54:48;;;;;;;;;;;6.20;99.90;;;;;;5072276;28;19955;-50
2022/01/11 11:57:17;;;;;;;;;;;6.40;99.90;;;;;;5069308;28;19925;-51
2022/01/11 11:59:50;;;;;;;;;;;6.40;99.90;;;;;;5051678;28;20314;-51
2022/01/11 12:02:30;;;;;;;;;;;6.30;99.90;;;;;;5052091;28;19932;-51
2022/01/11 12:04:56;;;;;;;;;;;6.30;99.90;;;;;;5051884;28;19928;-51
2022/01/11 12:07:28;;;;;;;;;;;5.90;99.90;;;;;;5056625;28;19924;-51
2022/01/11 12:09:55;;;;;;;;;;;5.70;99.90;;;;;;5071568;28;19978;-51
2022/01/11 12:12:37;;;;;;;;;;;5.80;99.90;;;;;;5071682;28;19928;-51
2022/01/11 12:15:33;;;;;;;;;;;6.00;99.90;;;;;;5071721;28;19924;-51
2022/01/11 12:18:14;;;;;;;;;;;6.10;99.90;;;;;;5071301;28;20341;-51
2022/01/11 12:20:41;;;;;;;;;;;6.10;99.90;;;;;;5070316;28;19932;-51
2022/01/11 12:23:11;;;;;;;;;;;5.80;99.90;;;;;;5071694;28;19978;-51
2022/01/11 12:25:42;;;;;;;;;;;5.50;99.90;;;;;;5071935;28;19994;-50
2022/01/11 12:28:15;;;;;;;;;;;5.20;99.90;;;;;;5071715;28;20023;-51
2022/01/11 12:30:43;;;;;;;;;;;5.00;99.90;;;;;;5071714;28;20568;-51
2022/01/11 12:33:11;;;;;;;;;;;4.80;99.90;;;;;;5059352;28;19924;-51
2022/01/11 12:36:05;;;;;;;;;;;4.70;99.90;;;;;;5071395;28;20394;-50
2022/01/11 12:38:33;;;;;;;;;;;4.80;99.90;;;;;;5031746;28;19935;-51
2022/01/11 12:41:15;;;;;;;;;;;4.90;99.90;;;;;;5075304;28;19924;-51
2022/01/11 12:43:46;;;;;;;;;;;5.20;99.90;;;;;;5074887;28;19928;-51
2022/01/11 12:46:14;;;;;;;;;;;5.30;99.90;;;;;;5075753;28;19967;-51
2022/01/11 12:49:08;;;;;;;;;;;5.40;99.90;;;;;;5075106;28;19931;-50
2022/01/11 12:51:37;;;;;;;;;;;5.50;99.90;;;;;;5075586;28;19925;-51
2022/01/11 12:54:14;;;;;;;;;;;5.60;99.90;;;;;;5067185;28;19924;-51
2022/01/11 12:56:42;;;;;;;;;;;5.60;99.90;;;;;;5074901;28;19973;-51
2022/01/11 12:59:09;;;;;;;;;;;5.70;99.90;;;;;;5074558;28;20265;-51
2022/01/11 13:01:37;;;;;;;;;;;5.70;99.90;;;;;;5075115;28;19925;-50
2022/01/11 13:04:04;;;;;;;;;;;5.70;99.90;;;;;;5075091;28;19978;-50
2022/01/11 13:06:31;;;;;;;;;;;5.60;99.90;;;;;;5075002;28;19925;-50
2022/01/11 13:08:59;;;;;;;;;;;5.60;99.90;;;;;;5074286;28;19924;-51
2022/01/11 13:11:26;;;;;;;;;;;5.60;99.90;;;;;;5074919;28;19970;-51
2022/01/11 13:14:15;;;;;;;;;;;5.50;99.90;;;;;;5074985;28;20398;-52
2022/01/11 13:16:44;;;;;;;;;;;5.40;99.90;;;;;;5075218;28;19929;-53
2022/01/11 13:19:11;;;;;;;;;;;5.20;99.90;;;;;;5074828;28;20293;-51
2022/01/11 13:21:38;;;;;;;;;;;5.40;99.90;;;;;;5075596;28;19978;-52
2022/01/11 13:24:12;;;;;;;;;;;5.50;99.90;;;;;;5075307;28;19978;-51
2022/01/11 13:26:38;;;;;;;;;;;5.30;99.90;;;;;;5062177;28;20015;-51
2022/01/11 13:29:07;;;;;;;;;;;5.30;99.90;;;;;;5074692;28;19978;-52
2022/01/11 13:31:36;;;;;;;;;;;5.50;99.90;;;;;;5075183;28;19928;-51
2022/01/11 13:34:07;;;;;;;;;;;5.50;99.90;;;;;;5075039;28;19928;-51
2022/01/11 13:36:35;;;;;;;;;;;5.20;99.90;;;;;;5075541;28;19932;-51
2022/01/11 13:39:05;;;;;;;;;;;4.90;99.90;;;;;;5074491;28;19933;-51
2022/01/11 13:41:34;;;;;;;;;;;5.20;99.90;;;;;;5075225;28;19928;-51
2022/01/11 13:44:03;;;;;;;;;;;5.00;99.90;;;;;;5074562;28;20037;-51
2022/01/11 13:46:30;;;;;;;;;;;5.20;99.90;;;;;;5074408;28;19978;-50
2022/01/11 13:48:57;;;;;;;;;;;5.10;99.90;;;;;;5074017;28;20398;-51
2022/01/11 13:51:26;;;;;;;;;;;5.00;99.90;;;;;;5073315;28;19987;-51
2022/01/11 13:53:57;;;;;;;;;;;5.10;99.90;;;;;;5066300;28;19932;-51
2022/01/11 13:56:24;;;;;;;;;;;5.20;99.90;;;;;;5054236;28;19925;-51
2022/01/11 13:58:52;;;;;;;;;;;5.10;99.90;;;;;;5066760;28;20348;-50
2022/01/11 14:01:19;;;;;;;;;;;5.30;99.90;;;;;;5074231;28;19978;-52
2022/01/11 14:03:46;;;;;;;;;;;5.30;99.90;;;;;;5074201;28;19936;-51
2022/01/11 14:06:14;;;;;;;;;;;5.00;99.90;;;;;;5074228;28;19924;-51
2022/01/11 14:08:45;;;;;;;;;;;5.10;99.90;;;;;;5073375;28;19928;-50
2022/01/11 14:11:13;;;;;;;;;;;5.00;99.90;;;;;;5073944;28;19924;-51
2022/01/11 14:13:42;;;;;;;;;;;4.90;99.90;;;;;;5073966;28;19925;-51
2022/01/11 14:16:15;;;;;;;;;;;4.90;99.90;;;;;;5074202;28;19931;-50
2022/01/11 14:18:42;;;;;;;;;;;5.00;99.90;;;;;;5073427;28;19929;-51
2022/01/11 14:21:12;;;;;;;;;;;4.90;99.90;;;;;;5073806;28;19924;-52
2022/01/11 14:23:40;;;;;;;;;;;4.90;99.90;;;;;;5074092;28;19947;-51
2022/01/11 14:26:09;;;;;;;;;;;4.90;99.90;;;;;;5073858;28;19931;-51
2022/01/11 14:28:38;;;;;;;;;;;4.80;99.90;;;;;;5073454;28;19959;-51
2022/01/11 14:31:12;;;;;;;;;;;4.50;99.90;;;;;;5073596;28;19925;-51
2022/01/11 14:33:38;;;;;;;;;;;4.50;99.90;;;;;;5073907;28;19924;-51
2022/01/11 14:36:07;;;;;;;;;;;4.50;99.90;;;;;;5073901;28;19925;-51